sensor_id;sensor_type;location;lat;lon;timestamp;temperature;humidity
20750;DHT22;10535;50.664;4.564;2023-07-16T00:02:24;16.60;99.90
20750;DHT22;10535;50.664;4.564;2023-07-16T00:04:50;16.70;99.90
20750;DHT22;10535;50.664;4.564;2023-07-16T00:07:15;16.60;99.90
20750;DHT22;10535;50.664;4.564;2023-07-16T00:09:43;16.50;99.90
20750;DHT22;10535;50.664;4.564;2023-07-16T00:12:08;16.70;99.90
20750;DHT22;10535;50.664;4.564;2023-07-16T00:14:34;16.60;99.90
20750;DHT22;10535;50.664;4.564;2023-07-16T00:17:00;16.60;99.90
20750;DHT22;10535;50.664;4.564;2023-07-16T00:19:25;16.60;99.90
20750;DHT22;10535;50.664;4.564;2023-07-16T00:21:51;16.60;99.90
20750;DHT22;10535;50.664;4.564;2023-07-16T00:24:16;16.50;99.90
20750;DHT22;10535;50.664;4.564;2023-07-16T00:26:42;16.40;99.90
20750;DHT22;10535;50.664;4.564;2023-07-16T00:29:08;16.40;99.90
20750;DHT22;10535;50.664;4.564;2023-07-16T00:31:34;16.50;99.90
20750;DHT22;10535;50.664;4.564;2023-07-16T00:33:59;16.50;99.90
20750;DHT22;10535;50.664;4.564;2023-07-16T00:36:25;16.40;99.90
20750;DHT22;10535;50.664;4.564;2023-07-16T00:38:50;16.40;99.90
20750;DHT22;10535;50.664;4.564;2023-07-16T00:41:16;16.30;99.90
20750;DHT22;10535;50.664;4.564;2023-07-16T00:43:42;16.30;99.90
20750;DHT22;10535;50.664;4.564;2023-07-16T00:46:08;16.20;99.90
20750;DHT22;10535;50.664;4.564;2023-07-16T00:48:34;16.20;99.90
20750;DHT22;10535;50.664;4.564;2023-07-16T00:51:02;16.20;99.90
20750;DHT22;10535;50.664;4.564;2023-07-16T00:53:28;16.30;99.90
20750;DHT22;10535;50.664;4.564;2023-07-16T00:55:54;16.20;99.90
20750;DHT22;10535;50.664;4.564;2023-07-16T00:58:19;16.30;99.90
20750;DHT22;10535;50.664;4.564;2023-07-16T01:00:45;16.30;99.90
20750;DHT22;10535;50.664;4.564;2023-07-16T01:03:13;16.30;99.90
20750;DHT22;10535;50.664;4.564;2023-07-16T01:08:31;16.20;99.90
20750;DHT22;10535;50.664;4.564;2023-07-16T01:10:58;16.30;99.90
20750;DHT22;10535;50.664;4.564;2023-07-16T01:13:26;16.30;99.90
20750;DHT22;10535;50.664;4.564;2023-07-16T01:15:52;16.20;99.90
20750;DHT22;10535;50.664;4.564;2023-07-16T01:18:17;16.10;99.90
20750;DHT22;10535;50.664;4.564;2023-07-16T01:20:43;16.10;99.90
20750;DHT22;10535;50.664;4.564;2023-07-16T01:23:39;16.10;99.90
20750;DHT22;10535;50.664;4.564;2023-07-16T01:31:35;15.80;99.90
20750;DHT22;10535;50.664;4.564;2023-07-16T01:34:04;15.70;99.90
20750;DHT22;10535;50.664;4.564;2023-07-16T01:36:31;15.80;99.90
20750;DHT22;10535;50.664;4.564;2023-07-16T01:38:57;15.70;99.90
20750;DHT22;10535;50.664;4.564;2023-07-16T01:41:23;15.70;99.90
20750;DHT22;10535;50.664;4.564;2023-07-16T01:43:50;15.70;99.90
20750;DHT22;10535;50.664;4.564;2023-07-16T01:46:15;15.60;99.90
20750;DHT22;10535;50.664;4.564;2023-07-16T01:48:41;15.50;99.90
20750;DHT22;10535;50.664;4.564;2023-07-16T01:51:07;15.50;99.90
20750;DHT22;10535;50.664;4.564;2023-07-16T01:53:32;15.50;99.90
20750;DHT22;10535;50.664;4.564;2023-07-16T01:56:00;15.40;99.90
20750;DHT22;10535;50.664;4.564;2023-07-16T01:58:26;15.40;99.90
20750;DHT22;10535;50.664;4.564;2023-07-16T02:00:51;15.40;99.90
20750;DHT22;10535;50.664;4.564;2023-07-16T02:03:17;15.30;99.90
20750;DHT22;10535;50.664;4.564;2023-07-16T02:05:42;15.20;99.90
20750;DHT22;10535;50.664;4.564;2023-07-16T02:08:08;15.10;99.90
20750;DHT22;10535;50.664;4.564;2023-07-16T02:10:35;15.00;99.90
20750;DHT22;10535;50.664;4.564;2023-07-16T02:13:01;15.00;99.90
20750;DHT22;10535;50.664;4.564;2023-07-16T02:15:26;14.90;99.90
20750;DHT22;10535;50.664;4.564;2023-07-16T02:17:52;14.90;99.90
20750;DHT22;10535;50.664;4.564;2023-07-16T02:20:17;14.80;99.90
20750;DHT22;10535;50.664;4.564;2023-07-16T02:22:43;14.80;99.90
20750;DHT22;10535;50.664;4.564;2023-07-16T02:25:09;14.70;99.90
20750;DHT22;10535;50.664;4.564;2023-07-16T02:27:34;14.70;99.90
20750;DHT22;10535;50.664;4.564;2023-07-16T02:30:00;14.60;99.90
20750;DHT22;10535;50.664;4.564;2023-07-16T02:32:25;14.70;99.90
20750;DHT22;10535;50.664;4.564;2023-07-16T02:34:51;14.70;99.90
20750;DHT22;10535;50.664;4.564;2023-07-16T02:37:17;14.80;99.90
20750;DHT22;10535;50.664;4.564;2023-07-16T02:39:45;14.80;99.90
20750;DHT22;10535;50.664;4.564;2023-07-16T02:42:11;14.70;99.90
20750;DHT22;10535;50.664;4.564;2023-07-16T02:44:37;14.50;99.90
20750;DHT22;10535;50.664;4.564;2023-07-16T02:47:08;14.50;99.90
20750;DHT22;10535;50.664;4.564;2023-07-16T02:49:34;14.50;99.90
20750;DHT22;10535;50.664;4.564;2023-07-16T02:52:00;14.50;99.90
20750;DHT22;10535;50.664;4.564;2023-07-16T02:54:25;14.50;99.90
20750;DHT22;10535;50.664;4.564;2023-07-16T02:56:52;14.60;99.90
20750;DHT22;10535;50.664;4.564;2023-07-16T02:59:17;14.50;99.90
20750;DHT22;10535;50.664;4.564;2023-07-16T03:01:43;14.60;99.90
20750;DHT22;10535;50.664;4.564;2023-07-16T03:04:08;14.50;99.90
20750;DHT22;10535;50.664;4.564;2023-07-16T03:06:34;14.50;99.90
20750;DHT22;10535;50.664;4.564;2023-07-16T03:09:00;14.50;99.90
20750;DHT22;10535;50.664;4.564;2023-07-16T03:11:25;14.60;99.90
20750;DHT22;10535;50.664;4.564;2023-07-16T03:13:51;14.40;99.90
20750;DHT22;10535;50.664;4.564;2023-07-16T03:16:16;14.40;99.90
20750;DHT22;10535;50.664;4.564;2023-07-16T03:18:43;14.30;99.90
20750;DHT22;10535;50.664;4.564;2023-07-16T03:21:09;14.20;99.90
20750;DHT22;10535;50.664;4.564;2023-07-16T03:26:14;14.30;99.90
20750;DHT22;10535;50.664;4.564;2023-07-16T03:28:39;14.30;99.90
20750;DHT22;10535;50.664;4.564;2023-07-16T03:31:05;14.30;99.90
20750;DHT22;10535;50.664;4.564;2023-07-16T03:33:30;14.30;99.90
20750;DHT22;10535;50.664;4.564;2023-07-16T03:35:56;14.30;99.90
20750;DHT22;10535;50.664;4.564;2023-07-16T03:38:22;14.20;99.90
20750;DHT22;10535;50.664;4.564;2023-07-16T03:40:49;14.20;99.90
20750;DHT22;10535;50.664;4.564;2023-07-16T03:43:15;14.20;99.90
20750;DHT22;10535;50.664;4.564;2023-07-16T03:45:41;14.30;99.90
20750;DHT22;10535;50.664;4.564;2023-07-16T03:48:08;14.30;99.90
20750;DHT22;10535;50.664;4.564;2023-07-16T03:50:35;14.40;99.90
20750;DHT22;10535;50.664;4.564;2023-07-16T03:53:01;14.40;99.90
20750;DHT22;10535;50.664;4.564;2023-07-16T03:55:28;14.40;99.90
20750;DHT22;10535;50.664;4.564;2023-07-16T03:57:54;14.50;99.90
20750;DHT22;10535;50.664;4.564;2023-07-16T04:00:19;14.50;99.90
20750;DHT22;10535;50.664;4.564;2023-07-16T04:02:45;14.50;99.90
20750;DHT22;10535;50.664;4.564;2023-07-16T04:05:11;14.40;99.90
20750;DHT22;10535;50.664;4.564;2023-07-16T04:07:36;14.50;99.90
20750;DHT22;10535;50.664;4.564;2023-07-16T04:10:02;14.50;99.90
20750;DHT22;10535;50.664;4.564;2023-07-16T04:12:28;14.50;99.90
20750;DHT22;10535;50.664;4.564;2023-07-16T04:14:57;14.60;99.90
20750;DHT22;10535;50.664;4.564;2023-07-16T04:17:24;14.60;99.90
20750;DHT22;10535;50.664;4.564;2023-07-16T04:19:49;14.70;99.90
20750;DHT22;10535;50.664;4.564;2023-07-16T04:22:15;14.80;99.90
20750;DHT22;10535;50.664;4.564;2023-07-16T04:24:41;14.70;99.90
20750;DHT22;10535;50.664;4.564;2023-07-16T04:27:06;14.70;99.90
20750;DHT22;10535;50.664;4.564;2023-07-16T04:29:32;14.70;99.90
20750;DHT22;10535;50.664;4.564;2023-07-16T04:31:58;14.80;99.90
20750;DHT22;10535;50.664;4.564;2023-07-16T04:34:24;14.80;99.90
20750;DHT22;10535;50.664;4.564;2023-07-16T04:36:50;15.00;99.90
20750;DHT22;10535;50.664;4.564;2023-07-16T04:39:16;15.20;99.90
20750;DHT22;10535;50.664;4.564;2023-07-16T04:41:41;15.20;99.90
20750;DHT22;10535;50.664;4.564;2023-07-16T04:44:07;15.20;99.90
20750;DHT22;10535;50.664;4.564;2023-07-16T04:46:33;15.20;99.90
20750;DHT22;10535;50.664;4.564;2023-07-16T04:48:59;15.20;99.90
20750;DHT22;10535;50.664;4.564;2023-07-16T04:51:24;15.20;99.90
20750;DHT22;10535;50.664;4.564;2023-07-16T04:53:50;15.40;99.90
20750;DHT22;10535;50.664;4.564;2023-07-16T04:56:16;15.30;99.90
20750;DHT22;10535;50.664;4.564;2023-07-16T04:58:42;15.40;99.90
20750;DHT22;10535;50.664;4.564;2023-07-16T05:01:09;15.50;99.90
20750;DHT22;10535;50.664;4.564;2023-07-16T05:03:35;15.60;99.90
20750;DHT22;10535;50.664;4.564;2023-07-16T05:06:01;15.80;99.90
20750;DHT22;10535;50.664;4.564;2023-07-16T05:08:27;16.00;99.90
20750;DHT22;10535;50.664;4.564;2023-07-16T05:10:53;16.20;99.90
20750;DHT22;10535;50.664;4.564;2023-07-16T05:13:18;16.50;99.90
20750;DHT22;10535;50.664;4.564;2023-07-16T05:15:44;17.00;99.90
20750;DHT22;10535;50.664;4.564;2023-07-16T05:18:10;17.50;99.90
20750;DHT22;10535;50.664;4.564;2023-07-16T05:20:36;17.80;99.90
20750;DHT22;10535;50.664;4.564;2023-07-16T05:23:01;18.20;99.90
20750;DHT22;10535;50.664;4.564;2023-07-16T05:25:27;18.40;99.90
20750;DHT22;10535;50.664;4.564;2023-07-16T05:27:52;18.60;99.90
20750;DHT22;10535;50.664;4.564;2023-07-16T05:30:18;18.70;99.90
20750;DHT22;10535;50.664;4.564;2023-07-16T05:32:44;18.90;99.90
20750;DHT22;10535;50.664;4.564;2023-07-16T05:35:09;18.90;99.90
20750;DHT22;10535;50.664;4.564;2023-07-16T05:37:35;19.00;99.90
20750;DHT22;10535;50.664;4.564;2023-07-16T05:40:01;19.00;99.90
20750;DHT22;10535;50.664;4.564;2023-07-16T05:42:28;19.20;99.90
20750;DHT22;10535;50.664;4.564;2023-07-16T05:44:54;19.20;99.90
20750;DHT22;10535;50.664;4.564;2023-07-16T05:47:19;19.40;99.90
20750;DHT22;10535;50.664;4.564;2023-07-16T05:49:45;19.50;99.90
20750;DHT22;10535;50.664;4.564;2023-07-16T05:52:12;19.60;99.90
20750;DHT22;10535;50.664;4.564;2023-07-16T05:54:38;19.60;99.90
20750;DHT22;10535;50.664;4.564;2023-07-16T05:57:04;19.80;99.90
20750;DHT22;10535;50.664;4.564;2023-07-16T05:59:29;19.70;99.90
20750;DHT22;10535;50.664;4.564;2023-07-16T06:01:55;19.70;99.90
20750;DHT22;10535;50.664;4.564;2023-07-16T06:04:23;19.80;99.90
20750;DHT22;10535;50.664;4.564;2023-07-16T06:06:49;19.80;99.90
20750;DHT22;10535;50.664;4.564;2023-07-16T06:09:14;19.60;99.90
20750;DHT22;10535;50.664;4.564;2023-07-16T06:11:40;19.40;99.90
20750;DHT22;10535;50.664;4.564;2023-07-16T06:14:06;19.00;99.90
20750;DHT22;10535;50.664;4.564;2023-07-16T06:16:31;18.70;99.90
20750;DHT22;10535;50.664;4.564;2023-07-16T06:18:57;18.60;99.90
20750;DHT22;10535;50.664;4.564;2023-07-16T06:21:22;18.40;99.90
20750;DHT22;10535;50.664;4.564;2023-07-16T06:23:48;18.30;99.90
20750;DHT22;10535;50.664;4.564;2023-07-16T06:26:14;18.50;99.90
20750;DHT22;10535;50.664;4.564;2023-07-16T06:28:39;18.50;99.90
20750;DHT22;10535;50.664;4.564;2023-07-16T06:31:05;18.60;99.90
20750;DHT22;10535;50.664;4.564;2023-07-16T06:33:30;18.70;99.90
20750;DHT22;10535;50.664;4.564;2023-07-16T06:35:56;18.80;99.90
20750;DHT22;10535;50.664;4.564;2023-07-16T06:38:22;18.90;99.90
20750;DHT22;10535;50.664;4.564;2023-07-16T06:40:48;19.30;99.90
20750;DHT22;10535;50.664;4.564;2023-07-16T06:43:15;19.70;99.90
20750;DHT22;10535;50.664;4.564;2023-07-16T06:45:41;19.90;99.90
20750;DHT22;10535;50.664;4.564;2023-07-16T06:48:08;20.10;99.90
20750;DHT22;10535;50.664;4.564;2023-07-16T06:50:33;20.10;99.90
20750;DHT22;10535;50.664;4.564;2023-07-16T06:52:59;20.10;99.90
20750;DHT22;10535;50.664;4.564;2023-07-16T06:55:25;20.20;99.90
20750;DHT22;10535;50.664;4.564;2023-07-16T06:57:50;20.50;99.90
20750;DHT22;10535;50.664;4.564;2023-07-16T07:00:16;20.40;99.90
20750;DHT22;10535;50.664;4.564;2023-07-16T07:02:42;20.70;99.90
20750;DHT22;10535;50.664;4.564;2023-07-16T07:05:07;20.60;99.90
20750;DHT22;10535;50.664;4.564;2023-07-16T07:07:33;20.50;99.90
20750;DHT22;10535;50.664;4.564;2023-07-16T07:09:59;20.70;99.90
20750;DHT22;10535;50.664;4.564;2023-07-16T07:12:25;20.70;99.90
20750;DHT22;10535;50.664;4.564;2023-07-16T07:14:50;21.00;99.90
20750;DHT22;10535;50.664;4.564;2023-07-16T07:17:16;21.10;99.90
20750;DHT22;10535;50.664;4.564;2023-07-16T07:19:42;21.00;99.90
20750;DHT22;10535;50.664;4.564;2023-07-16T07:22:08;21.00;99.90
20750;DHT22;10535;50.664;4.564;2023-07-16T07:24:34;21.50;99.90
20750;DHT22;10535;50.664;4.564;2023-07-16T07:26:59;21.30;99.90
20750;DHT22;10535;50.664;4.564;2023-07-16T07:29:25;21.40;99.90
20750;DHT22;10535;50.664;4.564;2023-07-16T07:31:54;21.60;99.90
20750;DHT22;10535;50.664;4.564;2023-07-16T07:34:20;21.50;99.90
20750;DHT22;10535;50.664;4.564;2023-07-16T07:36:47;21.80;99.90
20750;DHT22;10535;50.664;4.564;2023-07-16T07:39:15;21.90;99.90
20750;DHT22;10535;50.664;4.564;2023-07-16T07:41:42;21.80;99.90
20750;DHT22;10535;50.664;4.564;2023-07-16T07:44:07;21.90;99.90
20750;DHT22;10535;50.664;4.564;2023-07-16T07:46:33;21.90;99.90
20750;DHT22;10535;50.664;4.564;2023-07-16T07:49:03;22.20;99.90
20750;DHT22;10535;50.664;4.564;2023-07-16T07:51:29;22.00;99.90
20750;DHT22;10535;50.664;4.564;2023-07-16T07:53:55;21.80;99.90
20750;DHT22;10535;50.664;4.564;2023-07-16T07:56:23;21.70;99.90
20750;DHT22;10535;50.664;4.564;2023-07-16T07:59:12;21.40;99.90
20750;DHT22;10535;50.664;4.564;2023-07-16T08:01:37;21.00;99.90
20750;DHT22;10535;50.664;4.564;2023-07-16T08:04:03;20.80;99.90
20750;DHT22;10535;50.664;4.564;2023-07-16T08:06:29;20.60;99.90
20750;DHT22;10535;50.664;4.564;2023-07-16T08:08:54;20.40;99.90
20750;DHT22;10535;50.664;4.564;2023-07-16T08:11:20;20.30;99.90
20750;DHT22;10535;50.664;4.564;2023-07-16T08:13:46;20.20;99.90
20750;DHT22;10535;50.664;4.564;2023-07-16T08:16:15;20.40;99.90
20750;DHT22;10535;50.664;4.564;2023-07-16T08:18:43;20.80;99.90
20750;DHT22;10535;50.664;4.564;2023-07-16T08:21:09;21.00;99.90
20750;DHT22;10535;50.664;4.564;2023-07-16T08:23:34;21.20;99.90
20750;DHT22;10535;50.664;4.564;2023-07-16T08:26:00;21.50;99.90
20750;DHT22;10535;50.664;4.564;2023-07-16T08:28:27;21.40;99.90
20750;DHT22;10535;50.664;4.564;2023-07-16T08:30:52;21.40;99.90
20750;DHT22;10535;50.664;4.564;2023-07-16T08:33:18;21.30;99.90
20750;DHT22;10535;50.664;4.564;2023-07-16T08:35:45;21.40;99.90
20750;DHT22;10535;50.664;4.564;2023-07-16T08:38:11;21.60;99.90
20750;DHT22;10535;50.664;4.564;2023-07-16T08:40:57;22.00;99.90
20750;DHT22;10535;50.664;4.564;2023-07-16T08:43:28;21.80;99.90
20750;DHT22;10535;50.664;4.564;2023-07-16T08:45:55;21.80;99.90
20750;DHT22;10535;50.664;4.564;2023-07-16T08:48:21;21.60;99.90
20750;DHT22;10535;50.664;4.564;2023-07-16T08:50:48;21.50;99.90
20750;DHT22;10535;50.664;4.564;2023-07-16T08:53:18;21.70;99.90
20750;DHT22;10535;50.664;4.564;2023-07-16T08:55:47;22.10;99.90
20750;DHT22;10535;50.664;4.564;2023-07-16T08:58:14;22.50;99.90
20750;DHT22;10535;50.664;4.564;2023-07-16T09:00:44;22.90;99.90
20750;DHT22;10535;50.664;4.564;2023-07-16T09:03:12;22.90;99.90
20750;DHT22;10535;50.664;4.564;2023-07-16T09:05:47;22.90;99.90
20750;DHT22;10535;50.664;4.564;2023-07-16T09:08:39;23.00;99.90
20750;DHT22;10535;50.664;4.564;2023-07-16T09:11:05;23.00;99.90
20750;DHT22;10535;50.664;4.564;2023-07-16T09:13:30;22.70;99.90
20750;DHT22;10535;50.664;4.564;2023-07-16T09:15:58;22.30;99.90
20750;DHT22;10535;50.664;4.564;2023-07-16T09:18:25;22.10;99.90
20750;DHT22;10535;50.664;4.564;2023-07-16T09:20:59;22.10;99.90
20750;DHT22;10535;50.664;4.564;2023-07-16T09:23:32;22.10;99.90
20750;DHT22;10535;50.664;4.564;2023-07-16T09:26:12;22.20;99.90
20750;DHT22;10535;50.664;4.564;2023-07-16T09:28:38;21.90;99.90
20750;DHT22;10535;50.664;4.564;2023-07-16T09:31:05;22.30;99.90
20750;DHT22;10535;50.664;4.564;2023-07-16T09:34:02;22.50;99.90
20750;DHT22;10535;50.664;4.564;2023-07-16T09:36:28;23.00;99.90
20750;DHT22;10535;50.664;4.564;2023-07-16T09:39:18;23.00;99.90
20750;DHT22;10535;50.664;4.564;2023-07-16T09:41:46;22.70;99.90
20750;DHT22;10535;50.664;4.564;2023-07-16T09:44:18;22.80;99.90
20750;DHT22;10535;50.664;4.564;2023-07-16T09:46:45;22.90;99.90
20750;DHT22;10535;50.664;4.564;2023-07-16T09:49:35;23.20;99.90
20750;DHT22;10535;50.664;4.564;2023-07-16T09:52:26;22.90;99.90
20750;DHT22;10535;50.664;4.564;2023-07-16T09:55:13;22.70;99.90
20750;DHT22;10535;50.664;4.564;2023-07-16T09:57:42;22.80;99.90
20750;DHT22;10535;50.664;4.564;2023-07-16T10:00:25;23.00;99.90
20750;DHT22;10535;50.664;4.564;2023-07-16T10:03:07;23.00;99.90
20750;DHT22;10535;50.664;4.564;2023-07-16T10:05:38;22.90;99.90
20750;DHT22;10535;50.664;4.564;2023-07-16T10:08:04;22.80;99.90
20750;DHT22;10535;50.664;4.564;2023-07-16T10:10:53;22.80;99.90
20750;DHT22;10535;50.664;4.564;2023-07-16T10:13:23;22.70;99.90
20750;DHT22;10535;50.664;4.564;2023-07-16T10:15:57;22.80;99.90
20750;DHT22;10535;50.664;4.564;2023-07-16T10:18:32;22.80;99.90
20750;DHT22;10535;50.664;4.564;2023-07-16T10:21:06;22.80;99.90
20750;DHT22;10535;50.664;4.564;2023-07-16T10:23:58;22.60;99.90
20750;DHT22;10535;50.664;4.564;2023-07-16T10:27:09;22.60;99.90
20750;DHT22;10535;50.664;4.564;2023-07-16T10:30:17;22.80;99.90
20750;DHT22;10535;50.664;4.564;2023-07-16T10:33:11;23.10;99.90
20750;DHT22;10535;50.664;4.564;2023-07-16T10:36:23;23.30;99.90
20750;DHT22;10535;50.664;4.564;2023-07-16T10:38:49;23.50;99.90
20750;DHT22;10535;50.664;4.564;2023-07-16T10:41:35;23.60;99.90
20750;DHT22;10535;50.664;4.564;2023-07-16T10:44:08;23.60;99.90
20750;DHT22;10535;50.664;4.564;2023-07-16T10:46:38;23.50;99.90
20750;DHT22;10535;50.664;4.564;2023-07-16T10:49:04;23.40;99.90
20750;DHT22;10535;50.664;4.564;2023-07-16T10:51:33;23.20;99.90
20750;DHT22;10535;50.664;4.564;2023-07-16T10:54:15;23.40;99.90
20750;DHT22;10535;50.664;4.564;2023-07-16T10:56:43;23.10;99.90
20750;DHT22;10535;50.664;4.564;2023-07-16T10:59:12;23.00;99.90
20750;DHT22;10535;50.664;4.564;2023-07-16T11:01:42;23.10;99.90
20750;DHT22;10535;50.664;4.564;2023-07-16T11:04:08;23.10;99.90
20750;DHT22;10535;50.664;4.564;2023-07-16T11:06:34;23.50;99.90
20750;DHT22;10535;50.664;4.564;2023-07-16T11:09:15;23.80;99.90
20750;DHT22;10535;50.664;4.564;2023-07-16T11:11:44;24.00;99.90
20750;DHT22;10535;50.664;4.564;2023-07-16T11:14:23;24.60;99.90
20750;DHT22;10535;50.664;4.564;2023-07-16T11:16:49;24.80;99.90
20750;DHT22;10535;50.664;4.564;2023-07-16T11:19:23;24.80;99.90
20750;DHT22;10535;50.664;4.564;2023-07-16T11:21:53;25.00;99.90
20750;DHT22;10535;50.664;4.564;2023-07-16T11:24:20;25.60;99.90
20750;DHT22;10535;50.664;4.564;2023-07-16T11:27:12;25.30;99.90
20750;DHT22;10535;50.664;4.564;2023-07-16T11:30:00;25.20;99.90
20750;DHT22;10535;50.664;4.564;2023-07-16T11:32:41;25.60;99.90
20750;DHT22;10535;50.664;4.564;2023-07-16T11:35:20;25.70;99.90
20750;DHT22;10535;50.664;4.564;2023-07-16T11:37:47;25.50;99.90
20750;DHT22;10535;50.664;4.564;2023-07-16T11:40:18;25.20;99.90
20750;DHT22;10535;50.664;4.564;2023-07-16T11:42:45;24.90;99.90
20750;DHT22;10535;50.664;4.564;2023-07-16T11:45:20;25.00;99.90
20750;DHT22;10535;50.664;4.564;2023-07-16T11:47:48;24.90;99.90
20750;DHT22;10535;50.664;4.564;2023-07-16T11:50:40;25.00;99.90
20750;DHT22;10535;50.664;4.564;2023-07-16T11:53:06;24.80;99.90
20750;DHT22;10535;50.664;4.564;2023-07-16T11:55:32;24.90;99.90
20750;DHT22;10535;50.664;4.564;2023-07-16T11:57:58;25.20;99.90
20750;DHT22;10535;50.664;4.564;2023-07-16T12:00:25;25.70;99.90
20750;DHT22;10535;50.664;4.564;2023-07-16T12:02:51;25.60;99.90
20750;DHT22;10535;50.664;4.564;2023-07-16T12:05:23;25.30;99.90
20750;DHT22;10535;50.664;4.564;2023-07-16T12:07:53;25.10;99.90
20750;DHT22;10535;50.664;4.564;2023-07-16T12:10:34;25.20;99.90
20750;DHT22;10535;50.664;4.564;2023-07-16T12:12:59;25.30;99.90
20750;DHT22;10535;50.664;4.564;2023-07-16T12:15:25;25.20;99.90
20750;DHT22;10535;50.664;4.564;2023-07-16T12:17:51;25.10;99.90
20750;DHT22;10535;50.664;4.564;2023-07-16T12:20:17;25.00;99.90
20750;DHT22;10535;50.664;4.564;2023-07-16T12:22:43;25.00;99.90
20750;DHT22;10535;50.664;4.564;2023-07-16T12:25:09;25.10;99.90
20750;DHT22;10535;50.664;4.564;2023-07-16T12:27:35;25.40;99.90
20750;DHT22;10535;50.664;4.564;2023-07-16T12:30:06;25.50;99.90
20750;DHT22;10535;50.664;4.564;2023-07-16T12:32:55;25.20;99.90
20750;DHT22;10535;50.664;4.564;2023-07-16T12:35:27;24.90;99.90
20750;DHT22;10535;50.664;4.564;2023-07-16T12:37:52;24.90;99.90
20750;DHT22;10535;50.664;4.564;2023-07-16T12:40:18;24.80;99.90
20750;DHT22;10535;50.664;4.564;2023-07-16T12:42:44;24.80;99.90
20750;DHT22;10535;50.664;4.564;2023-07-16T12:45:09;24.90;99.90
20750;DHT22;10535;50.664;4.564;2023-07-16T12:47:35;25.20;99.90
20750;DHT22;10535;50.664;4.564;2023-07-16T12:50:01;25.40;99.90
20750;DHT22;10535;50.664;4.564;2023-07-16T12:52:26;25.50;99.90
20750;DHT22;10535;50.664;4.564;2023-07-16T12:54:52;25.50;99.90
20750;DHT22;10535;50.664;4.564;2023-07-16T12:57:17;25.30;99.90
20750;DHT22;10535;50.664;4.564;2023-07-16T12:59:43;25.20;99.90
20750;DHT22;10535;50.664;4.564;2023-07-16T13:02:10;25.10;99.90
20750;DHT22;10535;50.664;4.564;2023-07-16T13:04:35;25.30;99.90
20750;DHT22;10535;50.664;4.564;2023-07-16T13:07:01;25.40;99.90
20750;DHT22;10535;50.664;4.564;2023-07-16T13:09:28;25.50;99.90
20750;DHT22;10535;50.664;4.564;2023-07-16T13:11:56;25.60;99.90
20750;DHT22;10535;50.664;4.564;2023-07-16T13:14:21;25.50;99.90
20750;DHT22;10535;50.664;4.564;2023-07-16T13:16:47;25.60;99.90
20750;DHT22;10535;50.664;4.564;2023-07-16T13:19:15;25.60;99.90
20750;DHT22;10535;50.664;4.564;2023-07-16T13:21:41;25.90;99.90
20750;DHT22;10535;50.664;4.564;2023-07-16T13:24:07;25.80;99.90
20750;DHT22;10535;50.664;4.564;2023-07-16T13:26:52;25.60;99.90
20750;DHT22;10535;50.664;4.564;2023-07-16T13:29:18;25.70;99.90
20750;DHT22;10535;50.664;4.564;2023-07-16T13:31:44;25.50;99.90
20750;DHT22;10535;50.664;4.564;2023-07-16T13:34:10;25.50;99.90
20750;DHT22;10535;50.664;4.564;2023-07-16T13:36:35;25.40;99.90
20750;DHT22;10535;50.664;4.564;2023-07-16T13:39:01;25.50;99.90
20750;DHT22;10535;50.664;4.564;2023-07-16T13:41:27;25.70;99.90
20750;DHT22;10535;50.664;4.564;2023-07-16T13:43:53;26.00;99.90
20750;DHT22;10535;50.664;4.564;2023-07-16T13:46:19;26.20;99.90
20750;DHT22;10535;50.664;4.564;2023-07-16T13:48:44;26.20;99.90
20750;DHT22;10535;50.664;4.564;2023-07-16T13:51:10;26.00;99.90
20750;DHT22;10535;50.664;4.564;2023-07-16T13:53:35;25.90;99.90
20750;DHT22;10535;50.664;4.564;2023-07-16T13:56:01;25.70;99.90
20750;DHT22;10535;50.664;4.564;2023-07-16T13:58:27;25.20;99.90
20750;DHT22;10535;50.664;4.564;2023-07-16T14:00:56;25.20;99.90
20750;DHT22;10535;50.664;4.564;2023-07-16T14:03:21;25.10;99.90
20750;DHT22;10535;50.664;4.564;2023-07-16T14:05:47;25.00;99.90
20750;DHT22;10535;50.664;4.564;2023-07-16T14:08:13;25.20;99.90
20750;DHT22;10535;50.664;4.564;2023-07-16T14:10:39;25.30;99.90
20750;DHT22;10535;50.664;4.564;2023-07-16T14:13:05;25.10;99.90
20750;DHT22;10535;50.664;4.564;2023-07-16T14:15:30;25.00;99.90
20750;DHT22;10535;50.664;4.564;2023-07-16T14:17:56;24.80;99.90
20750;DHT22;10535;50.664;4.564;2023-07-16T14:20:22;24.70;99.90
20750;DHT22;10535;50.664;4.564;2023-07-16T14:22:47;24.50;99.90
20750;DHT22;10535;50.664;4.564;2023-07-16T14:25:13;24.50;99.90
20750;DHT22;10535;50.664;4.564;2023-07-16T14:27:38;24.50;99.90
20750;DHT22;10535;50.664;4.564;2023-07-16T14:30:04;24.60;99.90
20750;DHT22;10535;50.664;4.564;2023-07-16T14:32:30;24.90;99.90
20750;DHT22;10535;50.664;4.564;2023-07-16T14:34:57;25.20;99.90
20750;DHT22;10535;50.664;4.564;2023-07-16T14:37:23;25.00;99.90
20750;DHT22;10535;50.664;4.564;2023-07-16T14:39:48;25.50;99.90
20750;DHT22;10535;50.664;4.564;2023-07-16T14:42:14;25.70;99.90
20750;DHT22;10535;50.664;4.564;2023-07-16T14:44:39;25.60;99.90
20750;DHT22;10535;50.664;4.564;2023-07-16T14:47:05;26.00;99.90
20750;DHT22;10535;50.664;4.564;2023-07-16T14:49:31;26.30;99.90
20750;DHT22;10535;50.664;4.564;2023-07-16T14:51:57;26.50;99.90
20750;DHT22;10535;50.664;4.564;2023-07-16T14:54:22;26.90;99.90
20750;DHT22;10535;50.664;4.564;2023-07-16T14:56:48;26.70;99.90
20750;DHT22;10535;50.664;4.564;2023-07-16T14:59:14;26.70;99.90
20750;DHT22;10535;50.664;4.564;2023-07-16T15:01:39;26.60;99.90
20750;DHT22;10535;50.664;4.564;2023-07-16T15:04:05;26.50;99.90
20750;DHT22;10535;50.664;4.564;2023-07-16T15:06:31;26.40;99.90
20750;DHT22;10535;50.664;4.564;2023-07-16T15:08:56;26.00;99.90
20750;DHT22;10535;50.664;4.564;2023-07-16T15:11:22;25.70;99.90
20750;DHT22;10535;50.664;4.564;2023-07-16T15:13:48;25.50;99.90
20750;DHT22;10535;50.664;4.564;2023-07-16T15:16:13;25.30;99.90
20750;DHT22;10535;50.664;4.564;2023-07-16T15:18:42;24.90;99.90
20750;DHT22;10535;50.664;4.564;2023-07-16T15:21:08;24.40;99.90
20750;DHT22;10535;50.664;4.564;2023-07-16T15:23:34;23.90;99.90
20750;DHT22;10535;50.664;4.564;2023-07-16T15:26:05;23.50;99.90
20750;DHT22;10535;50.664;4.564;2023-07-16T15:28:32;23.30;99.90
20750;DHT22;10535;50.664;4.564;2023-07-16T15:31:00;23.50;99.90
20750;DHT22;10535;50.664;4.564;2023-07-16T15:33:26;23.50;99.90
20750;DHT22;10535;50.664;4.564;2023-07-16T15:35:52;23.70;99.90
20750;DHT22;10535;50.664;4.564;2023-07-16T15:38:17;23.80;99.90
20750;DHT22;10535;50.664;4.564;2023-07-16T15:40:43;23.90;99.90
20750;DHT22;10535;50.664;4.564;2023-07-16T15:43:09;24.20;99.90
20750;DHT22;10535;50.664;4.564;2023-07-16T15:45:35;24.70;99.90
20750;DHT22;10535;50.664;4.564;2023-07-16T15:48:01;24.80;99.90